Time;durP1;ratioP1;P1;durP2;ratioP2;P2;SDS_P1;SDS_P2;PMS_P1;PMS_P2;Temp;Humidity;BMP_temperature;BMP_pressure;BME280_temperature;BME280_humidity;BME280_pressure;Samples;Min_cycle;Max_cycle;Signal;HPM_P1;HPM_P2
2024/02/05 00:00:28;0.00;0.00;0.62;0.00;0.00;0.62;5.23;4.17;;;22.30;26.70;;;;;;2259440;61;20404;-63
2024/02/05 00:03:12;0.00;0.00;0.62;0.00;0.00;0.62;5.30;3.90;;;22.30;26.70;;;;;;2259254;61;20369;-63
2024/02/05 00:05:57;0.00;0.00;0.62;0.00;0.00;0.62;3.90;3.50;;;22.30;26.70;;;;;;2259208;61;20372;-63
2024/02/05 00:08:41;0.00;0.00;0.62;0.00;0.00;0.62;4.30;3.70;;;22.30;26.70;;;;;;2259519;61;20385;-64
2024/02/05 00:11:28;0.00;0.00;0.62;0.00;0.00;0.62;4.77;4.30;;;22.30;26.70;;;;;;2259741;61;20503;-64
2024/02/05 00:14:12;0.00;0.00;0.62;0.00;0.00;0.62;3.90;3.43;;;22.30;26.70;;;;;;2263144;61;20406;-62
2024/02/05 00:16:57;0.00;0.00;0.62;0.00;0.00;0.62;4.17;3.60;;;22.30;26.70;;;;;;2264143;61;20392;-62
2024/02/05 00:19:42;0.00;0.00;0.62;0.00;0.00;0.62;4.83;3.50;;;22.30;26.70;;;;;;2260827;61;20411;-64
2024/02/05 00:22:26;0.00;0.00;0.62;0.00;0.00;0.62;4.33;3.70;;;22.40;26.80;;;;;;2264118;61;20674;-63
2024/02/05 00:25:11;0.00;0.00;0.62;0.00;0.00;0.62;4.27;3.60;;;22.30;26.70;;;;;;2264192;61;20463;-63
2024/02/05 00:27:57;0.00;0.00;0.62;0.00;0.00;0.62;4.73;2.90;;;22.30;26.80;;;;;;2264109;61;20419;-64
2024/02/05 00:30:42;0.00;0.00;0.62;0.00;0.00;0.62;4.10;3.27;;;22.30;26.80;;;;;;2264067;61;20384;-63
2024/02/05 00:33:26;0.00;0.00;0.62;0.00;0.00;0.62;5.00;3.20;;;22.40;26.80;;;;;;2264125;61;20422;-64
2024/02/05 00:36:11;0.00;0.00;0.62;0.00;0.00;0.62;4.63;3.50;;;22.30;26.80;;;;;;2263842;61;20863;-62
2024/02/05 00:38:56;0.00;0.00;0.62;0.00;0.00;0.62;4.53;3.40;;;22.30;26.80;;;;;;2264319;61;20388;-64
2024/02/05 00:41:41;0.00;0.00;0.62;0.00;0.00;0.62;3.93;3.10;;;22.30;26.80;;;;;;2263599;61;20359;-63
2024/02/05 00:44:27;0.00;0.00;0.62;0.00;0.00;0.62;4.30;3.23;;;22.30;26.80;;;;;;2665244;45;20352;-64
2024/02/05 00:47:12;0.00;0.00;0.62;0.00;0.00;0.62;3.13;2.57;;;22.30;26.80;;;;;;2264244;61;20364;-63
2024/02/05 00:49:57;0.00;0.00;0.62;0.00;0.00;0.62;4.17;3.63;;;22.40;26.90;;;;;;2262786;61;20373;-64
2024/02/05 00:52:41;0.00;0.00;0.62;0.00;0.00;0.62;4.50;3.33;;;22.40;26.90;;;;;;2259967;61;20368;-63
2024/02/05 00:55:26;0.00;0.00;0.62;0.00;0.00;0.62;3.50;2.93;;;22.40;26.90;;;;;;2260151;61;20957;-64
2024/02/05 00:58:12;0.00;0.00;0.62;0.00;0.00;0.62;3.47;2.50;;;22.40;26.90;;;;;;2259812;61;20927;-63
2024/02/05 01:00:58;0.00;0.00;0.62;0.00;0.00;0.62;3.80;2.77;;;22.30;26.80;;;;;;2260005;61;20781;-63
2024/02/05 01:03:44;0.00;0.00;0.62;0.00;0.00;0.62;3.60;2.57;;;22.30;26.80;;;;;;2260165;61;20405;-64
2024/02/05 01:06:30;0.00;0.00;0.62;0.00;0.00;0.62;3.63;2.53;;;22.30;26.80;;;;;;2510899;53;20407;-64
2024/02/05 01:09:17;0.00;0.00;0.62;0.00;0.00;0.62;3.40;2.20;;;22.30;26.80;;;;;;2260284;61;20381;-64
2024/02/05 01:12:10;0.00;0.00;0.62;0.00;0.00;0.62;3.70;2.90;;;22.40;26.90;;;;;;2261367;61;20368;-63
2024/02/05 01:14:55;0.00;0.00;0.62;0.00;0.00;0.62;2.60;2.20;;;22.40;26.90;;;;;;2263841;61;20460;-64
2024/02/05 01:17:41;0.00;0.00;0.62;0.00;0.00;0.62;3.10;2.43;;;22.40;26.90;;;;;;2264151;61;20485;-64
2024/02/05 01:20:25;0.00;0.00;0.62;0.00;0.00;0.62;3.97;2.73;;;22.40;27.00;;;;;;2260591;61;20438;-64
2024/02/05 01:23:10;0.00;0.00;0.62;0.00;0.00;0.62;4.20;3.00;;;22.40;26.90;;;;;;2263915;61;20356;-63
2024/02/05 01:25:55;0.00;0.00;0.62;0.00;0.00;0.62;3.93;2.53;;;22.40;26.90;;;;;;2264405;61;20359;-63
2024/02/05 01:28:39;0.00;0.00;0.62;0.00;0.00;0.62;3.30;2.30;;;22.40;26.90;;;;;;2414550;45;20836;-63
2024/02/05 01:31:24;0.00;0.00;0.62;0.00;0.00;0.62;2.87;2.43;;;22.40;26.90;;;;;;2264108;61;20412;-61
2024/02/05 01:34:10;0.00;0.00;0.62;0.00;0.00;0.62;3.50;2.70;;;22.40;26.90;;;;;;2383142;45;20434;-61
2024/02/05 01:36:55;0.00;0.00;0.62;0.00;0.00;0.62;3.10;2.20;;;22.40;26.90;;;;;;2272786;61;20427;-64
2024/02/05 01:39:40;0.00;0.00;0.62;0.00;0.00;0.62;3.70;2.50;;;22.40;26.90;;;;;;2351970;53;20396;-63
2024/02/05 01:42:25;0.00;0.00;0.62;0.00;0.00;0.62;3.17;2.07;;;22.40;26.90;;;;;;2267557;61;20405;-60
2024/02/05 01:45:10;0.00;0.00;0.62;0.00;0.00;0.62;3.20;2.30;;;22.40;26.90;;;;;;2290549;58;20380;-63
2024/02/05 01:47:55;0.00;0.00;0.62;0.00;0.00;0.62;2.77;2.20;;;22.40;27.00;;;;;;2271444;61;20429;-63
2024/02/05 01:50:42;0.00;0.00;0.62;0.00;0.00;0.62;2.50;2.10;;;22.40;27.00;;;;;;2263619;61;20396;-64
2024/02/05 01:53:27;0.00;0.00;0.62;0.00;0.00;0.62;2.57;2.03;;;22.40;27.00;;;;;;2266787;61;20388;-62
2024/02/05 01:56:12;0.00;0.00;0.62;0.00;0.00;0.62;2.53;2.30;;;22.40;27.00;;;;;;2263813;61;20391;-64
2024/02/05 01:58:58;0.00;0.00;0.62;0.00;0.00;0.62;2.90;1.90;;;22.40;27.00;;;;;;2259976;61;20380;-64
2024/02/05 02:01:43;0.00;0.00;0.62;0.00;0.00;0.62;2.93;1.97;;;22.40;27.00;;;;;;2259994;61;20365;-64
2024/02/05 02:04:29;0.00;0.00;0.62;0.00;0.00;0.62;2.70;2.13;;;22.40;27.00;;;;;;2259441;61;20461;-63
2024/02/05 02:07:16;0.00;0.00;0.62;0.00;0.00;0.62;2.93;2.17;;;22.40;27.00;;;;;;2257308;61;20368;-64
2024/02/05 02:10:01;0.00;0.00;0.62;0.00;0.00;0.62;2.90;2.13;;;22.40;27.00;;;;;;2496266;53;20900;-63
2024/02/05 02:12:46;0.00;0.00;0.62;0.00;0.00;0.62;2.63;1.70;;;22.40;27.00;;;;;;2259099;61;20477;-63
2024/02/05 02:15:31;0.00;0.00;0.62;0.00;0.00;0.62;2.80;2.20;;;22.40;27.00;;;;;;2259669;61;20393;-63
2024/02/05 02:18:20;0.00;0.00;0.62;0.00;0.00;0.62;2.50;1.70;;;22.40;27.00;;;;;;2259969;61;20388;-63
2024/02/05 02:21:09;0.00;0.00;0.62;0.00;0.00;0.62;2.90;2.00;;;22.40;27.00;;;;;;2263635;61;20411;-62
2024/02/05 02:23:55;0.00;0.00;0.62;0.00;0.00;0.62;2.60;1.80;;;22.40;27.00;;;;;;2263767;61;20360;-63
2024/02/05 02:26:39;0.00;0.00;0.62;0.00;0.00;0.62;2.60;1.80;;;22.40;27.00;;;;;;2261408;61;20372;-64
2024/02/05 02:29:24;0.00;0.00;0.62;0.00;0.00;0.62;2.83;2.03;;;22.40;27.00;;;;;;2259751;61;20804;-64
2024/02/05 02:32:20;0.00;0.00;0.62;0.00;0.00;0.62;3.00;1.90;;;22.40;27.00;;;;;;2259716;61;20387;-64
2024/02/05 02:35:11;0.00;0.00;0.62;0.00;0.00;0.62;2.60;1.63;;;22.40;27.00;;;;;;2259070;61;20903;-64
2024/02/05 02:38:01;0.00;0.00;0.62;0.00;0.00;0.62;3.07;1.97;;;22.40;27.00;;;;;;2259705;61;20400;-63
2024/02/05 02:40:53;0.00;0.00;0.62;0.00;0.00;0.62;2.47;1.60;;;22.40;27.00;;;;;;2260599;61;20414;-63
2024/02/05 02:43:49;0.00;0.00;0.62;0.00;0.00;0.62;3.00;2.00;;;22.40;27.00;;;;;;2263471;61;20459;-64
2024/02/05 02:46:33;0.00;0.00;0.62;0.00;0.00;0.62;1.93;1.53;;;22.40;27.00;;;;;;2263779;61;20785;-62
2024/02/05 02:49:18;0.00;0.00;0.62;0.00;0.00;0.62;2.20;1.40;;;22.40;27.00;;;;;;2263453;61;20438;-63
2024/02/05 02:52:03;0.00;0.00;0.62;0.00;0.00;0.62;3.27;2.13;;;22.40;27.00;;;;;;2263733;61;20414;-63
2024/02/05 02:54:47;0.00;0.00;0.62;0.00;0.00;0.62;3.43;1.53;;;22.40;27.00;;;;;;2260459;61;20392;-64
2024/02/05 02:57:34;0.00;0.00;0.62;0.00;0.00;0.62;2.63;1.83;;;22.40;27.00;;;;;;2329209;57;20365;-62
2024/02/05 03:00:19;0.00;0.00;0.62;0.00;0.00;0.62;3.23;1.53;;;22.40;27.00;;;;;;2259650;61;20439;-64
2024/02/05 03:03:05;0.00;0.00;0.62;0.00;0.00;0.62;3.03;2.00;;;22.40;27.10;;;;;;2259251;61;20401;-64
2024/02/05 03:05:50;0.00;0.00;0.62;0.00;0.00;0.62;2.30;1.90;;;22.40;27.00;;;;;;2259655;61;20389;-64
2024/02/05 03:08:35;0.00;0.00;0.62;0.00;0.00;0.62;2.67;1.77;;;22.40;27.00;;;;;;2259674;61;20842;-64
2024/02/05 03:11:20;0.00;0.00;0.62;0.00;0.00;0.62;2.80;1.63;;;22.40;27.10;;;;;;2259164;61;20456;-64
2024/02/05 03:14:06;0.00;0.00;0.62;0.00;0.00;0.62;2.10;1.63;;;22.40;27.10;;;;;;2259647;61;20919;-64
2024/02/05 03:16:51;0.00;0.00;0.62;0.00;0.00;0.62;2.77;1.60;;;22.40;27.10;;;;;;2259699;61;20397;-64
2024/02/05 03:19:35;0.00;0.00;0.62;0.00;0.00;0.62;2.00;1.37;;;22.40;27.10;;;;;;2263145;61;20402;-64
2024/02/05 03:22:20;0.00;0.00;0.62;0.00;0.00;0.62;2.50;1.60;;;22.40;27.10;;;;;;2263530;61;20368;-63
2024/02/05 03:25:05;0.00;0.00;0.62;0.00;0.00;0.62;2.50;1.30;;;22.40;27.10;;;;;;2262609;61;20420;-64
2024/02/05 03:27:50;0.00;0.00;0.62;0.00;0.00;0.62;2.27;1.43;;;22.40;27.10;;;;;;2259353;61;20389;-63
2024/02/05 03:30:36;0.00;0.00;0.62;0.00;0.00;0.62;3.20;1.70;;;22.40;27.10;;;;;;2259575;61;20392;-64
2024/02/05 03:33:21;0.00;0.00;0.62;0.00;0.00;0.62;3.60;2.20;;;22.40;27.10;;;;;;2259385;61;20927;-63
2024/02/05 03:36:06;0.00;0.00;0.62;0.00;0.00;0.62;3.40;1.90;;;22.40;27.10;;;;;;2259583;61;20459;-64
2024/02/05 03:38:50;0.00;0.00;0.62;0.00;0.00;0.62;2.40;1.50;;;22.40;27.10;;;;;;2259537;61;20511;-63
2024/02/05 03:41:35;0.00;0.00;0.62;0.00;0.00;0.62;2.50;1.60;;;22.40;27.10;;;;;;2263029;61;20831;-64
2024/02/05 03:44:20;0.00;0.00;0.62;0.00;0.00;0.62;2.77;1.87;;;22.40;27.10;;;;;;2263160;61;20356;-63
2024/02/05 03:47:06;0.00;0.00;0.62;0.00;0.00;0.62;3.37;1.63;;;22.40;27.10;;;;;;2263636;61;20798;-64
2024/02/05 03:49:50;0.00;0.00;0.62;0.00;0.00;0.62;4.10;2.07;;;22.40;27.10;;;;;;2260074;61;20365;-63
2024/02/05 03:52:35;0.00;0.00;0.62;0.00;0.00;0.62;4.10;1.93;;;22.40;27.10;;;;;;2260185;61;20368;-64
2024/02/05 03:55:20;0.00;0.00;0.62;0.00;0.00;0.62;2.67;1.70;;;22.40;27.10;;;;;;2258580;61;20434;-64
2024/02/05 03:58:06;0.00;0.00;0.62;0.00;0.00;0.62;3.40;1.80;;;22.40;27.10;;;;;;2261066;61;20395;-64
2024/02/05 04:00:50;0.00;0.00;0.62;0.00;0.00;0.62;2.50;2.00;;;22.40;27.10;;;;;;2264301;61;20426;-64
2024/02/05 04:03:36;0.00;0.00;0.62;0.00;0.00;0.62;2.77;1.97;;;22.40;27.10;;;;;;2260232;61;20421;-63
2024/02/05 04:06:21;0.00;0.00;0.62;0.00;0.00;0.62;3.43;2.17;;;22.40;27.10;;;;;;2259777;61;20456;-63
2024/02/05 04:09:07;0.00;0.00;0.62;0.00;0.00;0.62;3.37;2.00;;;22.40;27.10;;;;;;2260078;61;20380;-63
2024/02/05 04:11:52;0.00;0.00;0.62;0.00;0.00;0.62;2.40;1.70;;;22.40;27.10;;;;;;2264123;61;20418;-64
2024/02/05 04:14:37;0.00;0.00;0.62;0.00;0.00;0.62;3.07;2.00;;;22.40;27.10;;;;;;2264160;61;20903;-64
2024/02/05 04:17:23;0.00;0.00;0.62;0.00;0.00;0.62;3.20;2.20;;;22.40;27.10;;;;;;2262255;61;20392;-64
2024/02/05 04:20:09;0.00;0.00;0.62;0.00;0.00;0.62;4.13;2.00;;;22.40;27.20;;;;;;2260257;61;20777;-63
2024/02/05 04:22:54;0.00;0.00;0.62;0.00;0.00;0.62;2.73;1.73;;;22.40;27.10;;;;;;2259997;61;20790;-64
2024/02/05 04:25:38;0.00;0.00;0.62;0.00;0.00;0.62;3.33;2.23;;;22.40;27.20;;;;;;2257094;61;20453;-63
2024/02/05 04:28:23;0.00;0.00;0.62;0.00;0.00;0.62;3.03;2.17;;;22.40;27.10;;;;;;2259937;61;20389;-64
2024/02/05 04:31:08;0.00;0.00;0.62;0.00;0.00;0.62;4.57;2.20;;;22.40;27.10;;;;;;2260342;61;20365;-64
2024/02/05 04:33:54;0.00;0.00;0.62;0.00;0.00;0.62;3.00;2.53;;;22.40;27.10;;;;;;2566677;45;20792;-64
2024/02/05 04:36:40;0.00;0.00;0.62;0.00;0.00;0.62;2.60;1.80;;;22.40;27.20;;;;;;2264028;61;20426;-64
2024/02/05 04:39:25;0.00;0.00;0.62;0.00;0.00;0.62;2.83;1.60;;;22.40;27.20;;;;;;2262547;61;20392;-64
2024/02/05 04:42:09;0.00;0.00;0.62;0.00;0.00;0.62;3.90;1.90;;;22.40;27.10;;;;;;2260001;61;20773;-60
2024/02/05 04:44:54;0.00;0.00;0.62;0.00;0.00;0.62;3.80;2.10;;;22.40;27.20;;;;;;2260057;61;20776;-61
2024/02/05 04:47:38;0.00;0.00;0.62;0.00;0.00;0.62;3.80;2.30;;;22.40;27.10;;;;;;2259791;61;20404;-63
2024/02/05 04:50:22;0.00;0.00;0.62;0.00;0.00;0.62;5.30;1.80;;;22.40;27.20;;;;;;2260086;61;20364;-64
2024/02/05 04:53:08;0.00;0.00;0.62;0.00;0.00;0.62;4.60;2.07;;;22.40;27.10;;;;;;2260049;61;20391;-63
2024/02/05 04:55:53;0.00;0.00;0.62;0.00;0.00;0.62;3.40;2.00;;;22.40;27.20;;;;;;2264626;61;20430;-65
2024/02/05 04:58:38;0.00;0.00;0.62;0.00;0.00;0.62;3.63;2.37;;;22.40;27.20;;;;;;2263987;61;20411;-65
2024/02/05 05:01:22;0.00;0.00;0.62;0.00;0.00;0.62;3.73;1.77;;;22.40;27.20;;;;;;2264020;61;20368;-64
2024/02/05 05:04:07;0.00;0.00;0.62;0.00;0.00;0.62;3.60;1.87;;;22.40;27.20;;;;;;2263958;61;20411;-63
2024/02/05 05:06:51;0.00;0.00;0.62;0.00;0.00;0.62;4.27;2.00;;;22.40;27.20;;;;;;2264066;61;20356;-65
2024/02/05 05:09:37;0.00;0.00;0.62;0.00;0.00;0.62;3.47;2.13;;;22.40;27.20;;;;;;2261427;61;20424;-63
2024/02/05 05:12:22;0.00;0.00;0.62;0.00;0.00;0.62;4.67;2.20;;;22.40;27.20;;;;;;2260099;61;20500;-64
2024/02/05 05:15:07;0.00;0.00;0.62;0.00;0.00;0.62;4.33;2.00;;;22.40;27.20;;;;;;2260116;61;20364;-63
2024/02/05 05:17:52;0.00;0.00;0.62;0.00;0.00;0.62;4.47;2.40;;;22.40;27.20;;;;;;2259935;61;21169;-63
2024/02/05 05:20:38;0.00;0.00;0.62;0.00;0.00;0.62;3.10;1.97;;;22.40;27.20;;;;;;2260314;61;20360;-63
2024/02/05 05:23:22;0.00;0.00;0.62;0.00;0.00;0.62;4.30;2.47;;;22.40;27.20;;;;;;2260270;61;20364;-64
2024/02/05 05:26:08;0.00;0.00;0.62;0.00;0.00;0.62;4.07;2.50;;;22.40;27.20;;;;;;2264429;61;20410;-63
2024/02/05 05:28:54;0.00;0.00;0.62;0.00;0.00;0.62;5.70;2.67;;;22.40;27.20;;;;;;2261305;61;20454;-63
2024/02/05 05:31:39;0.00;0.00;0.62;0.00;0.00;0.62;3.63;2.30;;;22.40;27.20;;;;;;2262243;61;20369;-63
2024/02/05 05:34:25;0.00;0.00;0.62;0.00;0.00;0.62;4.47;2.63;;;22.40;27.30;;;;;;2260240;61;20423;-63
2024/02/05 05:37:10;0.00;0.00;0.62;0.00;0.00;0.62;4.97;2.00;;;22.40;27.20;;;;;;2260397;61;20911;-63
2024/02/05 05:39:56;0.00;0.00;0.62;0.00;0.00;0.62;5.20;2.50;;;22.40;27.20;;;;;;2263341;61;20422;-63
2024/02/05 05:42:43;0.00;0.00;0.62;0.00;0.00;0.62;4.60;2.53;;;22.40;27.20;;;;;;2264736;61;20770;-63
2024/02/05 05:45:29;0.00;0.00;0.62;0.00;0.00;0.62;5.80;2.80;;;22.40;27.20;;;;;;2264028;61;21006;-63
2024/02/05 05:48:14;0.00;0.00;0.62;0.00;0.00;0.62;3.47;2.43;;;22.30;27.20;;;;;;2260313;61;20786;-63
2024/02/05 05:50:59;0.00;0.00;0.62;0.00;0.00;0.62;5.33;2.63;;;22.30;27.20;;;;;;2259946;61;20909;-61
2024/02/05 05:53:43;0.00;0.00;0.62;0.00;0.00;0.62;5.83;3.23;;;22.30;27.20;;;;;;2259876;61;20896;-64
2024/02/05 05:56:29;0.00;0.00;0.62;0.00;0.00;0.62;4.97;2.50;;;22.40;27.30;;;;;;2260278;61;20479;-61
2024/02/05 05:59:16;0.00;0.00;0.62;0.00;0.00;0.62;4.90;2.40;;;22.30;27.20;;;;;;2257544;61;20519;-62
2024/02/05 06:02:02;0.00;0.00;0.62;0.00;0.00;0.62;6.10;2.57;;;22.30;27.20;;;;;;2263451;61;20352;-60
2024/02/05 06:04:47;0.00;0.00;0.62;0.00;0.00;0.62;5.40;2.57;;;22.30;27.20;;;;;;2264869;61;20364;-61
2024/02/05 06:07:33;0.00;0.00;0.62;0.00;0.00;0.62;4.23;2.07;;;22.30;27.20;;;;;;2264395;61;20360;-61
2024/02/05 06:10:18;0.00;0.00;0.62;0.00;0.00;0.62;3.67;2.30;;;22.30;27.20;;;;;;2498194;53;20419;-61
2024/02/05 06:13:05;0.00;0.00;0.62;0.00;0.00;0.62;4.60;2.33;;;22.30;27.20;;;;;;2260253;61;20369;-63
2024/02/05 06:15:51;0.00;0.00;0.62;0.00;0.00;0.62;4.20;2.50;;;22.30;27.20;;;;;;2261601;61;20437;-63
2024/02/05 06:18:35;0.00;0.00;0.62;0.00;0.00;0.62;5.43;3.00;;;22.30;27.20;;;;;;2263756;61;20522;-63
2024/02/05 06:21:20;0.00;0.00;0.62;0.00;0.00;0.62;3.73;2.10;;;22.30;27.20;;;;;;2264089;61;20857;-62
2024/02/05 06:24:06;0.00;0.00;0.62;0.00;0.00;0.62;4.70;2.97;;;22.40;27.30;;;;;;2263007;61;20914;-62
2024/02/05 06:26:50;0.00;0.00;0.62;0.00;0.00;0.62;4.97;2.87;;;22.30;27.20;;;;;;2260641;61;20399;-64
2024/02/05 06:29:36;0.00;0.00;0.62;0.00;0.00;0.62;3.97;2.47;;;22.30;27.20;;;;;;2263869;61;20384;-64
2024/02/05 06:32:22;0.00;0.00;0.62;0.00;0.00;0.62;3.97;2.07;;;22.30;27.20;;;;;;2603465;45;20775;-62
2024/02/05 06:35:07;0.00;0.00;0.62;0.00;0.00;0.62;3.33;2.20;;;22.30;27.20;;;;;;2263908;61;20368;-64
2024/02/05 06:37:52;0.00;0.00;0.62;0.00;0.00;0.62;3.33;2.10;;;22.30;27.20;;;;;;2263520;61;20473;-63
2024/02/05 06:40:36;0.00;0.00;0.62;0.00;0.00;0.62;8.00;2.77;;;22.30;27.20;;;;;;2263762;61;20772;-63
2024/02/05 06:43:21;0.00;0.00;0.62;0.00;0.00;0.62;5.90;3.10;;;22.30;27.20;;;;;;2263742;61;20364;-64
2024/02/05 06:46:05;0.00;0.00;0.62;0.00;0.00;0.62;7.33;3.27;;;22.30;27.20;;;;;;2260145;61;20943;-64
2024/02/05 06:48:51;0.00;0.00;0.62;0.00;0.00;0.62;7.33;3.20;;;22.30;27.20;;;;;;2259935;61;20442;-63
2024/02/05 06:51:36;0.00;0.00;0.62;0.00;0.00;0.62;7.30;3.13;;;22.40;27.20;;;;;;2259753;61;20365;-62
2024/02/05 06:54:20;0.00;0.00;0.62;0.00;0.00;0.62;6.73;3.57;;;22.30;27.20;;;;;;2703630;45;20365;-64
2024/02/05 06:57:05;0.00;0.00;0.62;0.00;0.00;0.62;6.57;3.23;;;22.30;27.20;;;;;;2259745;61;20393;-63
2024/02/05 06:59:49;0.00;0.00;0.62;0.00;0.00;0.62;6.57;3.60;;;22.30;27.10;;;;;;2259513;61;20412;-64
2024/02/05 07:02:34;0.00;0.00;0.62;0.00;0.00;0.62;6.77;4.00;;;22.30;27.10;;;;;;2259421;61;20357;-63
2024/02/05 07:05:21;0.00;0.00;0.62;0.00;0.00;0.62;7.23;4.73;;;22.30;27.20;;;;;;2259920;61;20412;-64
2024/02/05 07:08:06;0.00;0.00;0.62;0.00;0.00;0.62;9.63;4.97;;;22.30;27.20;;;;;;2261836;61;20422;-62
2024/02/05 07:10:51;0.00;0.00;0.62;0.00;0.00;0.62;9.93;6.10;;;22.30;27.20;;;;;;2263938;61;20360;-64
2024/02/05 07:13:38;0.00;0.00;0.62;0.00;0.00;0.62;9.27;6.63;;;22.30;27.20;;;;;;2260467;61;20370;-64
2024/02/05 07:16:23;0.00;0.00;0.62;0.00;0.00;0.62;11.00;6.30;;;22.30;27.20;;;;;;2263025;61;20375;-62
2024/02/05 07:19:07;0.00;0.00;0.62;0.00;0.00;0.62;9.10;6.40;;;22.30;27.20;;;;;;2263816;61;20993;-64
2024/02/05 07:21:53;0.00;0.00;0.62;0.00;0.00;0.62;8.30;6.37;;;22.30;27.20;;;;;;2262620;61;20907;-65
2024/02/05 07:24:37;0.00;0.00;0.62;0.00;0.00;0.62;12.80;7.67;;;22.30;27.20;;;;;;2259393;61;20361;-64
2024/02/05 07:27:23;0.00;0.00;0.62;0.00;0.00;0.62;10.20;7.67;;;22.30;27.20;;;;;;2259698;61;20423;-64
2024/02/05 07:30:09;0.00;0.00;0.62;0.00;0.00;0.62;9.50;7.40;;;22.30;27.20;;;;;;2261383;61;20404;-64
2024/02/05 07:32:54;0.00;0.00;0.62;0.00;0.00;0.62;13.73;8.47;;;22.30;27.20;;;;;;2263666;61;20422;-64
2024/02/05 07:35:39;0.00;0.00;0.62;0.00;0.00;0.62;15.77;9.00;;;22.30;27.20;;;;;;2263577;61;20383;-63
2024/02/05 07:38:24;0.00;0.00;0.62;0.00;0.00;0.62;10.73;7.20;;;22.30;27.20;;;;;;2263465;61;20426;-65
2024/02/05 07:41:10;0.00;0.00;0.62;0.00;0.00;0.62;11.80;8.23;;;22.30;27.20;;;;;;2263898;61;20765;-63
2024/02/05 07:43:55;0.00;0.00;0.62;0.00;0.00;0.62;12.87;8.67;;;22.30;27.70;;;;;;2262407;61;20449;-63
2024/02/05 07:46:40;0.00;0.00;0.62;0.00;0.00;0.62;9.23;7.23;;;22.30;27.20;;;;;;2259551;61;20365;-62
2024/02/05 07:49:26;0.00;0.00;0.62;0.00;0.00;0.62;8.60;7.30;;;22.30;27.20;;;;;;2259712;61;20388;-64
2024/02/05 07:52:10;0.00;0.00;0.62;0.00;0.00;0.62;13.00;8.97;;;22.30;27.20;;;;;;2255644;61;20479;-63
2024/02/05 07:54:56;0.00;0.00;0.62;0.00;0.00;0.62;10.43;7.67;;;22.30;27.20;;;;;;2259706;61;20508;-62
2024/02/05 07:57:41;0.00;0.00;0.62;0.00;0.00;0.62;11.20;7.70;;;22.30;27.20;;;;;;2259458;61;20431;-64
2024/02/05 08:00:25;0.00;0.00;0.62;0.00;0.00;0.62;10.50;6.50;;;22.30;27.20;;;;;;2262524;61;20388;-62
2024/02/05 08:03:10;0.00;0.00;0.62;0.00;0.00;0.62;10.00;6.27;;;22.30;27.70;;;;;;2263466;61;20356;-63
2024/02/05 08:05:55;0.00;0.00;0.62;0.00;0.00;0.62;10.87;7.10;;;22.30;27.20;;;;;;2263241;61;20384;-62
2024/02/05 08:08:39;0.00;0.00;0.62;0.00;0.00;0.62;12.30;7.27;;;22.30;27.10;;;;;;2259304;61;20477;-63
2024/02/05 08:11:26;0.00;0.00;0.62;0.00;0.00;0.62;8.73;7.10;;;22.30;27.10;;;;;;2259763;61;20361;-62
2024/02/05 08:14:11;0.00;0.00;0.62;0.00;0.00;0.62;9.40;6.50;;;22.30;27.10;;;;;;2260644;61;20902;-64
2024/02/05 08:16:55;0.00;0.00;0.62;0.00;0.00;0.62;11.17;6.77;;;22.30;27.10;;;;;;2263420;61;20414;-63
2024/02/05 08:19:40;0.00;0.00;0.62;0.00;0.00;0.62;10.13;6.60;;;22.30;27.10;;;;;;2263550;61;20888;-63
2024/02/05 08:22:25;0.00;0.00;0.62;0.00;0.00;0.62;13.70;6.43;;;22.30;27.10;;;;;;2262799;61;20363;-64
2024/02/05 08:25:10;0.00;0.00;0.62;0.00;0.00;0.62;10.27;7.10;;;22.30;27.10;;;;;;2260351;61;20355;-63
2024/02/05 08:27:56;0.00;0.00;0.62;0.00;0.00;0.62;9.40;6.37;;;22.30;27.10;;;;;;2263548;61;20847;-63
2024/02/05 08:30:41;0.00;0.00;0.62;0.00;0.00;0.62;12.63;6.90;;;22.30;27.20;;;;;;2636554;45;20499;-64
2024/02/05 08:33:26;0.00;0.00;0.62;0.00;0.00;0.62;11.00;8.67;;;22.30;27.10;;;;;;2264018;61;20436;-63
2024/02/05 08:36:11;0.00;0.00;0.62;0.00;0.00;0.62;12.13;9.07;;;22.30;27.20;;;;;;2262233;61;20393;-63
2024/02/05 08:38:55;0.00;0.00;0.62;0.00;0.00;0.62;13.90;9.30;;;22.30;27.10;;;;;;2259968;61;20419;-63
2024/02/05 08:41:40;0.00;0.00;0.62;0.00;0.00;0.62;13.10;9.37;;;22.30;27.10;;;;;;2260192;61;20787;-63
2024/02/05 08:44:27;0.00;0.00;0.62;0.00;0.00;0.62;11.87;8.93;;;22.30;27.10;;;;;;2259211;61;20377;-63
2024/02/05 08:47:13;0.00;0.00;0.62;0.00;0.00;0.62;13.43;9.20;;;22.30;27.10;;;;;;2260372;61;20880;-64
2024/02/05 08:49:58;0.00;0.00;0.62;0.00;0.00;0.62;13.90;9.00;;;22.30;27.10;;;;;;2260266;61;20834;-63
2024/02/05 08:52:43;0.00;0.00;0.62;0.00;0.00;0.62;14.40;9.20;;;22.30;27.20;;;;;;2508234;53;20411;-63
2024/02/05 08:55:27;0.00;0.00;0.62;0.00;0.00;0.62;14.67;10.50;;;22.30;27.10;;;;;;2260218;61;20369;-64
2024/02/05 08:58:12;0.00;0.00;0.62;0.00;0.00;0.62;14.73;9.77;;;22.30;27.10;;;;;;2260603;61;20388;-64
2024/02/05 09:00:58;0.00;0.00;0.62;0.00;0.00;0.62;13.83;9.60;;;22.30;27.10;;;;;;2263915;61;20364;-63
2024/02/05 09:03:42;0.00;0.00;0.62;0.00;0.00;0.62;14.93;10.03;;;22.30;27.10;;;;;;2260722;61;20498;-62
2024/02/05 09:06:27;0.00;0.00;0.62;0.00;0.00;0.62;13.33;10.13;;;22.30;27.10;;;;;;2261074;61;20946;-61
2024/02/05 09:09:12;0.00;0.00;0.62;0.00;0.00;0.62;16.13;9.83;;;22.30;27.10;;;;;;2260183;61;20400;-63
2024/02/05 09:11:58;0.00;0.00;0.62;0.00;0.00;0.62;13.47;10.20;;;22.30;27.10;;;;;;2260121;61;20454;-63
2024/02/05 09:14:43;0.00;0.00;0.62;0.00;0.00;0.62;12.80;9.40;;;22.30;27.10;;;;;;2263447;61;20761;-64
2024/02/05 09:17:29;0.00;0.00;0.62;0.00;0.00;0.62;13.17;8.20;;;22.30;27.10;;;;;;2264096;61;20433;-62
2024/02/05 09:20:13;0.00;0.00;0.62;0.00;0.00;0.62;14.13;9.57;;;22.30;27.10;;;;;;2263007;61;20403;-63
2024/02/05 09:22:58;0.00;0.00;0.62;0.00;0.00;0.62;13.23;9.73;;;22.30;27.10;;;;;;2259593;61;20404;-63
2024/02/05 09:25:42;0.00;0.00;0.62;0.00;0.00;0.62;13.97;9.63;;;22.30;27.10;;;;;;2260333;61;20369;-64
2024/02/05 09:28:27;0.00;0.00;0.62;0.00;0.00;0.62;12.07;8.67;;;22.30;27.10;;;;;;2261843;61;20450;-63
2024/02/05 09:31:11;0.00;0.00;0.62;0.00;0.00;0.62;15.50;10.03;;;22.30;27.10;;;;;;2264102;61;20483;-64
2024/02/05 09:33:57;0.00;0.00;0.62;0.00;0.00;0.62;12.13;8.80;;;22.40;27.20;;;;;;2264062;61;20945;-62
2024/02/05 09:36:42;0.00;0.00;0.62;0.00;0.00;0.62;13.20;9.00;;;22.30;27.10;;;;;;2263471;61;20387;-63
2024/02/05 09:39:26;0.00;0.00;0.62;0.00;0.00;0.62;12.80;9.37;;;22.30;27.10;;;;;;2264089;61;20472;-63
2024/02/05 09:42:11;0.00;0.00;0.62;0.00;0.00;0.62;12.40;9.27;;;22.30;27.10;;;;;;2260288;61;20798;-63
2024/02/05 09:44:56;0.00;0.00;0.62;0.00;0.00;0.62;14.20;9.60;;;22.30;27.10;;;;;;2263782;61;20967;-63
2024/02/05 09:47:42;0.00;0.00;0.62;0.00;0.00;0.62;12.37;8.83;;;22.30;27.10;;;;;;2263980;61;20448;-63
2024/02/05 09:50:28;0.00;0.00;0.62;0.00;0.00;0.62;12.00;8.97;;;22.30;27.10;;;;;;2261874;61;20377;-64
2024/02/05 09:53:13;0.00;0.00;0.62;0.00;0.00;0.62;10.53;8.50;;;22.30;27.10;;;;;;2259557;61;20834;-64
2024/02/05 09:56:00;0.00;0.00;0.62;0.00;0.00;0.62;13.33;9.20;;;22.30;27.10;;;;;;2260097;61;20797;-63
2024/02/05 09:58:44;0.00;0.00;0.62;0.00;0.00;0.62;13.60;9.20;;;22.30;27.10;;;;;;2259390;61;20916;-64
2024/02/05 10:01:30;0.00;0.00;0.62;0.00;0.00;0.62;11.03;8.67;;;22.30;27.10;;;;;;2259947;61;20385;-63
2024/02/05 10:04:18;0.00;0.00;0.62;0.00;0.00;0.62;13.90;8.20;;;22.30;27.10;;;;;;2256260;61;20388;-61
2024/02/05 10:07:08;0.00;0.00;0.62;0.00;0.00;0.62;12.50;9.03;;;22.30;27.10;;;;;;2259807;61;20361;-64
2024/02/05 10:09:54;0.00;0.00;0.62;0.00;0.00;0.62;17.53;9.40;;;22.30;27.10;;;;;;2259961;61;20365;-63
2024/02/05 10:12:41;0.00;0.00;0.62;0.00;0.00;0.62;13.10;8.67;;;22.30;27.00;;;;;;2259498;61;20365;-63
2024/02/05 10:15:26;0.00;0.00;0.62;0.00;0.00;0.62;11.83;7.50;;;22.30;27.00;;;;;;2259773;61;20369;-62
2024/02/05 10:18:10;0.00;0.00;0.62;0.00;0.00;0.62;10.60;8.20;;;22.30;27.00;;;;;;2259805;61;20396;-60
2024/02/05 10:20:55;0.00;0.00;0.62;0.00;0.00;0.62;10.77;8.20;;;22.30;27.00;;;;;;2262468;61;20494;-63
2024/02/05 10:23:41;0.00;0.00;0.62;0.00;0.00;0.62;11.57;7.60;;;22.30;27.00;;;;;;2263827;61;20419;-63
2024/02/05 10:26:25;0.00;0.00;0.62;0.00;0.00;0.62;10.67;7.63;;;22.30;27.00;;;;;;2263676;61;20487;-61
2024/02/05 10:29:10;0.00;0.00;0.62;0.00;0.00;0.62;12.27;8.30;;;22.30;27.00;;;;;;2666627;45;20388;-64
2024/02/05 10:31:58;0.00;0.00;0.62;0.00;0.00;0.62;9.93;7.33;;;22.30;27.00;;;;;;2259870;61;20499;-64
2024/02/05 10:34:50;0.00;0.00;0.62;0.00;0.00;0.62;11.07;7.93;;;22.30;27.00;;;;;;2260733;61;20452;-62
2024/02/05 10:37:34;0.00;0.00;0.62;0.00;0.00;0.62;10.50;7.10;;;22.30;27.00;;;;;;2263717;61;20412;-63
2024/02/05 10:40:21;0.00;0.00;0.62;0.00;0.00;0.62;10.80;8.23;;;22.30;27.00;;;;;;2264027;61;20418;-63
2024/02/05 10:43:08;0.00;0.00;0.62;0.00;0.00;0.62;11.17;6.90;;;22.30;27.00;;;;;;2262737;61;20895;-63
2024/02/05 10:45:57;0.00;0.00;0.62;0.00;0.00;0.62;14.53;7.60;;;22.30;27.00;;;;;;2264113;61;20383;-63
2024/02/05 10:48:45;0.00;0.00;0.62;0.00;0.00;0.62;12.07;6.90;;;22.30;27.00;;;;;;2263373;61;20380;-63
2024/02/05 10:51:30;0.00;0.00;0.62;0.00;0.00;0.62;9.60;7.20;;;22.30;27.00;;;;;;2263606;61;20364;-62